Terminal Aerodrome Forecast
Issued by NWS Cleveland, OH

Home | Current Version | Previous Version | Graphics & Text | Print | Product List | Glossary On
Versions: 1 2 3 4 5 6 7 8 9 10 11 12 13 14 15 16 17 18
307
FTUS41 KCLE 212335
TAFMFD
TAF
KMFD 212335Z 2200/2224 21010KT P6SM BKN100
     FM220200 27010G18KT P6SM OVC035
      TEMPO 2202/2205 -SHRA OVC025
     FM220500 30010G18KT P6SM -SHSN OVC025
     FM220800 30010KT P6SM BKN040
     FM221500 31008KT P6SM SCT040=

USA.gov is the U.S. government's official web portal to all federal, state and local government web resources and services.